createdAt,value
2023-05-07T00:00:50.936Z,21.00
2023-05-07T00:02:23.677Z,22.90
2023-05-07T00:03:56.154Z,22.80
2023-05-07T00:05:28.051Z,19.80
2023-05-07T00:06:59.829Z,21.20
2023-05-07T00:08:34.492Z,21.00
2023-05-07T00:10:07.872Z,21.90
2023-05-07T00:11:39.913Z,19.60
2023-05-07T00:13:11.722Z,21.40
2023-05-07T00:14:43.701Z,23.50
2023-05-07T00:16:15.527Z,23.30
2023-05-07T00:17:47.443Z,23.70
2023-05-07T00:19:19.268Z,22.90
2023-05-07T00:20:51.129Z,19.60
2023-05-07T00:22:22.987Z,21.60
2023-05-07T00:23:55.614Z,22.20
2023-05-07T00:25:28.804Z,22.60
2023-05-07T00:27:00.547Z,24.40
2023-05-07T00:28:32.519Z,22.00
2023-05-07T00:30:04.951Z,21.90
2023-05-07T00:31:36.775Z,24.50
2023-05-07T00:33:08.680Z,24.20
2023-05-07T00:34:41.526Z,25.40
2023-05-07T00:36:13.439Z,24.80
2023-05-07T00:37:45.573Z,23.70
2023-05-07T00:39:17.653Z,24.10
2023-05-07T00:40:49.770Z,25.50
2023-05-07T00:42:21.840Z,26.60
2023-05-07T00:43:53.660Z,28.90
2023-05-07T00:45:29.576Z,27.10
2023-05-07T00:47:06.336Z,28.60
2023-05-07T00:48:38.382Z,27.30
2023-05-07T00:50:12.094Z,30.90
2023-05-07T00:51:44.813Z,29.90
2023-05-07T00:53:16.701Z,25.80
2023-05-07T00:54:49.137Z,32.40
2023-05-07T00:56:23.224Z,33.70
2023-05-07T00:57:55.289Z,30.10
2023-05-07T00:59:27.338Z,25.10
2023-05-07T01:00:59.225Z,33.00
2023-05-07T01:02:31.621Z,32.50
2023-05-07T01:04:03.883Z,30.20
2023-05-07T01:05:36.608Z,32.40
2023-05-07T01:07:09.387Z,26.30
2023-05-07T01:08:43.028Z,30.80
2023-05-07T01:10:16.057Z,33.60
2023-05-07T01:11:51.273Z,28.80
2023-05-07T01:13:24.762Z,27.60
2023-05-07T01:14:56.784Z,29.60
2023-05-07T01:16:28.786Z,30.20
2023-05-07T01:18:00.910Z,31.20
2023-05-07T01:19:37.239Z,31.20
2023-05-07T01:21:12.410Z,32.10
2023-05-07T01:22:44.688Z,31.70
2023-05-07T01:24:17.179Z,31.90
2023-05-07T01:25:55.670Z,29.90
2023-05-07T01:27:29.407Z,27.10
2023-05-07T01:29:01.338Z,29.20
2023-05-07T01:30:35.785Z,28.50
2023-05-07T01:32:08.970Z,23.60
2023-05-07T01:33:43.934Z,23.80
2023-05-07T01:35:25.573Z,26.50
2023-05-07T01:36:59.104Z,28.20
2023-05-07T01:38:31.163Z,38.50
2023-05-07T01:40:04.315Z,29.80
2023-05-07T01:41:36.717Z,38.60
2023-05-07T01:43:10.473Z,29.40
2023-05-07T01:44:42.401Z,28.00
2023-05-07T01:46:16.721Z,31.00
2023-05-07T01:47:50.876Z,30.20
2023-05-07T01:49:22.762Z,30.00
2023-05-07T01:50:55.684Z,31.00
2023-05-07T01:52:29.583Z,29.40
2023-05-07T01:54:02.384Z,28.70
2023-05-07T01:55:34.321Z,29.90
2023-05-07T01:57:06.522Z,28.60
2023-05-07T01:58:38.355Z,30.10
2023-05-07T02:00:13.666Z,23.70
2023-05-07T02:01:48.795Z,26.50
2023-05-07T02:03:20.916Z,26.60
2023-05-07T02:04:58.323Z,26.40
2023-05-07T02:06:30.217Z,26.30
2023-05-07T02:08:07.297Z,27.70
2023-05-07T02:09:39.082Z,26.40
2023-05-07T02:11:11.103Z,24.50
2023-05-07T02:12:43.784Z,27.00
2023-05-07T02:14:16.449Z,28.40
2023-05-07T02:15:51.334Z,24.00
2023-05-07T02:17:23.913Z,27.00
2023-05-07T02:18:56.301Z,22.50
2023-05-07T02:20:28.498Z,24.70
2023-05-07T02:22:00.348Z,25.10
2023-05-07T02:23:35.218Z,23.50
2023-05-07T02:25:07.676Z,27.40
2023-05-07T02:26:41.399Z,26.30
2023-05-07T02:28:13.916Z,25.80
2023-05-07T02:29:53.950Z,28.20
2023-05-07T02:31:25.735Z,27.60
2023-05-07T02:32:57.558Z,30.50
2023-05-07T02:34:29.827Z,30.00
2023-05-07T02:36:12.658Z,32.00
2023-05-07T02:37:52.597Z,30.10
2023-05-07T02:39:24.714Z,29.70
2023-05-07T02:40:56.393Z,29.80
2023-05-07T02:42:28.143Z,33.20
2023-05-07T02:43:59.972Z,30.10
2023-05-07T02:45:33.913Z,31.20
2023-05-07T02:47:06.371Z,30.40
2023-05-07T02:48:38.224Z,28.40
2023-05-07T02:50:11.036Z,28.90
2023-05-07T02:51:43.167Z,30.80
2023-05-07T02:53:17.822Z,30.60
2023-05-07T02:54:49.603Z,32.00
2023-05-07T02:56:22.366Z,30.90
2023-05-07T02:57:54.139Z,31.90
2023-05-07T02:59:27.200Z,31.90
2023-05-07T03:00:59.958Z,30.80
2023-05-07T03:02:42.821Z,33.70
2023-05-07T03:04:14.598Z,34.30
2023-05-07T03:05:46.478Z,34.60
2023-05-07T03:07:18.171Z,32.00
2023-05-07T03:08:49.855Z,34.90
2023-05-07T03:10:21.570Z,35.40
2023-05-07T03:11:53.577Z,31.80
2023-05-07T03:13:25.705Z,36.40
2023-05-07T03:14:58.205Z,38.70
2023-05-07T03:16:30.088Z,40.30
2023-05-07T03:18:02.094Z,39.30
2023-05-07T03:19:33.995Z,40.70
2023-05-07T03:21:06.285Z,38.50
2023-05-07T03:22:38.394Z,37.50
2023-05-07T03:24:10.100Z,41.00
2023-05-07T03:25:42.055Z,41.00
2023-05-07T03:27:13.926Z,45.20
2023-05-07T03:28:45.822Z,44.60
2023-05-07T03:30:19.837Z,45.40
2023-05-07T03:31:52.172Z,45.30
2023-05-07T03:33:24.933Z,44.00
2023-05-07T03:34:56.854Z,44.80
2023-05-07T03:36:28.697Z,40.10
2023-05-07T03:38:01.456Z,42.40
2023-05-07T03:39:34.370Z,39.20
2023-05-07T03:41:06.325Z,37.20
2023-05-07T03:42:38.208Z,39.60
2023-05-07T03:44:09.981Z,40.10
2023-05-07T03:45:42.909Z,34.70
2023-05-07T03:47:24.788Z,37.00
2023-05-07T03:48:56.702Z,32.20
2023-05-07T03:50:28.477Z,31.90
2023-05-07T03:52:00.361Z,32.70
2023-05-07T03:53:32.414Z,34.20
2023-05-07T03:55:04.777Z,34.80
2023-05-07T03:56:36.788Z,32.00
2023-05-07T03:58:08.534Z,32.20
2023-05-07T03:59:40.895Z,33.20
2023-05-07T04:01:13.114Z,34.60
2023-05-07T04:02:45.195Z,32.20
2023-05-07T04:04:17.454Z,32.40
2023-05-07T04:05:49.454Z,33.60
2023-05-07T04:07:21.193Z,34.70
2023-05-07T04:08:54.777Z,29.20
2023-05-07T04:10:27.040Z,29.90
2023-05-07T04:11:59.634Z,32.50
2023-05-07T04:13:31.805Z,33.90
2023-05-07T04:15:04.256Z,33.60
2023-05-07T04:16:36.465Z,29.50
2023-05-07T04:18:08.674Z,28.20
2023-05-07T04:19:40.876Z,28.10
2023-05-07T04:21:19.308Z,26.40
2023-05-07T04:22:51.174Z,26.90
2023-05-07T04:24:22.992Z,28.30
2023-05-07T04:25:55.391Z,25.20
2023-05-07T04:27:30.770Z,22.00
2023-05-07T04:29:02.995Z,24.60
2023-05-07T04:30:37.427Z,27.10
2023-05-07T04:32:10.877Z,24.90
2023-05-07T04:33:43.267Z,23.70
2023-05-07T04:35:17.003Z,24.50
2023-05-07T04:36:49.125Z,24.40
2023-05-07T04:38:20.917Z,26.60
2023-05-07T04:39:53.719Z,23.00
2023-05-07T04:41:27.556Z,24.20
2023-05-07T04:42:59.473Z,21.50
2023-05-07T04:44:32.221Z,21.80
2023-05-07T04:46:03.948Z,24.20
2023-05-07T04:47:36.230Z,21.10
2023-05-07T04:49:08.100Z,22.20
2023-05-07T04:50:40.032Z,19.30
2023-05-07T04:52:11.920Z,21.60
2023-05-07T04:53:44.299Z,21.00
2023-05-07T04:55:16.741Z,20.70
2023-05-07T04:56:48.452Z,18.20
2023-05-07T04:58:20.555Z,19.70
2023-05-07T04:59:52.490Z,16.40
2023-05-07T05:01:24.307Z,16.20
2023-05-07T05:02:56.224Z,16.30
2023-05-07T05:04:28.368Z,16.30
2023-05-07T05:06:00.808Z,16.00
2023-05-07T05:07:34.469Z,16.60
2023-05-07T05:09:06.571Z,15.80
2023-05-07T05:10:38.455Z,16.10
2023-05-07T05:12:10.904Z,17.00
2023-05-07T05:13:43.320Z,16.10
2023-05-07T05:15:21.588Z,14.50
2023-05-07T05:16:53.370Z,15.60
2023-05-07T05:18:25.372Z,15.20
2023-05-07T05:19:57.300Z,14.80
2023-05-07T05:21:29.923Z,14.30
2023-05-07T05:23:04.716Z,15.10
2023-05-07T05:24:36.697Z,14.50
2023-05-07T05:26:08.596Z,15.80
2023-05-07T05:27:40.878Z,14.80
2023-05-07T05:29:13.050Z,14.80
2023-05-07T05:30:46.171Z,15.10
2023-05-07T05:32:18.211Z,12.30
2023-05-07T05:33:50.315Z,14.00
2023-05-07T05:35:22.388Z,13.00
2023-05-07T05:36:54.580Z,15.50
2023-05-07T05:38:26.827Z,13.20
2023-05-07T05:39:58.689Z,12.60
2023-05-07T05:41:31.519Z,13.40
2023-05-07T05:43:03.631Z,13.20
2023-05-07T05:44:35.986Z,13.50
2023-05-07T05:46:09.304Z,12.40
2023-05-07T05:47:42.331Z,13.60
2023-05-07T05:49:14.236Z,11.80
2023-05-07T05:50:46.370Z,11.20
2023-05-07T05:52:18.858Z,11.10
2023-05-07T05:53:51.351Z,11.90
2023-05-07T05:55:23.495Z,11.60
2023-05-07T05:56:55.304Z,12.00
2023-05-07T05:58:28.192Z,9.90
2023-05-07T06:00:05.380Z,11.20
2023-05-07T06:01:38.248Z,9.50
2023-05-07T06:03:10.184Z,9.80
2023-05-07T06:04:43.685Z,10.80
2023-05-07T06:06:16.256Z,10.60
2023-05-07T06:07:48.143Z,9.80
2023-05-07T06:09:20.059Z,10.00
2023-05-07T06:10:51.870Z,10.20
2023-05-07T06:12:23.971Z,9.60
2023-05-07T06:13:55.728Z,8.40
2023-05-07T06:15:28.310Z,9.20
2023-05-07T06:17:00.607Z,9.10
2023-05-07T06:18:32.514Z,9.50
2023-05-07T06:20:05.130Z,9.20
2023-05-07T06:21:37.010Z,10.00
2023-05-07T06:23:08.741Z,10.40
2023-05-07T06:24:40.646Z,8.30
2023-05-07T06:26:13.578Z,8.30
2023-05-07T06:27:47.197Z,9.40
2023-05-07T06:29:19.615Z,9.70
2023-05-07T06:30:51.789Z,9.30
2023-05-07T06:32:23.987Z,8.30
2023-05-07T06:33:56.423Z,8.50
2023-05-07T06:35:29.227Z,8.50
2023-05-07T06:37:01.128Z,7.90
2023-05-07T06:38:42.380Z,8.10
2023-05-07T06:40:14.215Z,8.40
2023-05-07T06:41:46.681Z,9.30
2023-05-07T06:43:26.911Z,9.10
2023-05-07T06:45:32.521Z,6.40
2023-05-07T06:47:04.876Z,7.20
2023-05-07T06:48:36.835Z,7.70
2023-05-07T06:50:11.208Z,8.00
2023-05-07T06:51:43.684Z,8.10
2023-05-07T06:53:15.613Z,7.30
2023-05-07T06:54:47.780Z,7.40
2023-05-07T06:56:22.115Z,7.40
2023-05-07T06:57:54.150Z,7.60
2023-05-07T06:59:26.721Z,8.60
2023-05-07T07:00:58.621Z,8.60
2023-05-07T07:02:30.741Z,7.80
2023-05-07T07:04:02.553Z,6.30
2023-05-07T07:05:34.750Z,8.10
2023-05-07T07:07:07.676Z,8.60
2023-05-07T07:08:40.821Z,6.50
2023-05-07T07:10:13.007Z,7.40
2023-05-07T07:11:44.835Z,8.20
2023-05-07T07:13:17.233Z,6.70
2023-05-07T07:14:49.190Z,8.00
2023-05-07T07:16:23.034Z,7.40
2023-05-07T07:17:56.389Z,7.80
2023-05-07T07:19:28.313Z,7.00
2023-05-07T07:21:00.915Z,8.50
2023-05-07T07:22:33.887Z,7.10
2023-05-07T07:24:06.225Z,7.00
2023-05-07T07:25:38.027Z,8.30
2023-05-07T07:27:09.952Z,6.90
2023-05-07T07:28:47.801Z,6.70
2023-05-07T07:30:22.700Z,6.10
2023-05-07T07:31:54.750Z,7.80
2023-05-07T07:33:26.592Z,8.30
2023-05-07T07:34:58.708Z,8.30
2023-05-07T07:36:38.906Z,7.40
2023-05-07T07:38:17.432Z,9.30
2023-05-07T07:39:49.315Z,7.80
2023-05-07T07:41:21.241Z,9.70
2023-05-07T07:42:54.501Z,8.80
2023-05-07T07:44:26.860Z,8.30
2023-05-07T07:46:02.886Z,8.50
2023-05-07T07:47:34.717Z,9.60
2023-05-07T07:49:06.651Z,9.30
2023-05-07T07:50:45.341Z,10.40
2023-05-07T07:52:19.965Z,9.40
2023-05-07T07:53:51.894Z,7.80
2023-05-07T07:55:24.280Z,9.10
2023-05-07T07:56:57.340Z,7.60
2023-05-07T07:58:29.664Z,9.10
2023-05-07T08:00:01.856Z,8.40
2023-05-07T08:01:35.011Z,9.40
2023-05-07T08:03:10.785Z,9.70
2023-05-07T08:04:47.251Z,10.00
2023-05-07T08:06:19.719Z,8.80
2023-05-07T08:18:10.862Z,8.70
2023-05-07T08:19:44.464Z,8.10
2023-05-07T08:21:18.001Z,8.00
2023-05-07T08:22:49.855Z,11.20
2023-05-07T08:24:22.026Z,10.10
2023-05-07T08:25:54.536Z,10.70
2023-05-07T08:27:26.343Z,9.70
2023-05-07T08:28:58.168Z,9.80
2023-05-07T08:30:30.428Z,10.00
2023-05-07T08:32:02.392Z,9.20
2023-05-07T08:33:34.192Z,10.20
2023-05-07T08:35:07.107Z,9.90
2023-05-07T08:36:38.864Z,9.20
2023-05-07T08:38:10.905Z,9.90
2023-05-07T08:39:42.919Z,11.00
2023-05-07T08:41:20.037Z,10.60
2023-05-07T08:42:54.987Z,11.30
2023-05-07T08:44:29.246Z,10.50
2023-05-07T08:46:03.630Z,10.60
2023-05-07T08:47:48.277Z,10.40
2023-05-07T08:49:21.671Z,9.90
2023-05-07T08:50:53.757Z,9.00
2023-05-07T08:52:27.904Z,11.90
2023-05-07T08:54:02.899Z,9.60
2023-05-07T08:55:36.896Z,10.60
2023-05-07T08:57:08.649Z,10.20
2023-05-07T08:58:40.656Z,10.50
2023-05-07T09:00:13.661Z,10.60
2023-05-07T09:01:46.252Z,14.20
2023-05-07T09:03:18.691Z,9.10
2023-05-07T09:04:53.927Z,8.90
2023-05-07T09:06:25.828Z,11.60
2023-05-07T09:08:02.803Z,11.60
2023-05-07T09:09:35.061Z,11.10
2023-05-07T09:11:07.344Z,11.60
2023-05-07T09:12:40.353Z,12.90
2023-05-07T09:14:12.525Z,11.70
2023-05-07T09:15:47.032Z,10.60
2023-05-07T09:17:19.632Z,11.90
2023-05-07T09:18:55.974Z,11.70
2023-05-07T09:20:28.015Z,11.80
2023-05-07T09:22:02.260Z,11.20
2023-05-07T09:23:35.276Z,10.70
2023-05-07T09:25:08.220Z,10.70
2023-05-07T09:26:41.995Z,11.60
2023-05-07T09:28:14.156Z,8.70
2023-05-07T09:29:46.410Z,10.30
2023-05-07T09:31:21.426Z,10.90
2023-05-07T09:32:54.901Z,10.30
2023-05-07T09:34:26.973Z,10.50
2023-05-07T09:35:58.805Z,10.10
2023-05-07T09:37:33.286Z,8.90
2023-05-07T09:39:05.710Z,11.20
2023-05-07T09:40:37.777Z,9.80
2023-05-07T09:42:16.079Z,9.60
2023-05-07T09:43:55.815Z,10.40
2023-05-07T09:45:30.216Z,10.20
2023-05-07T09:47:07.523Z,12.00
2023-05-07T09:48:45.482Z,9.30
2023-05-07T09:50:17.798Z,11.40
2023-05-07T09:51:56.558Z,9.80
2023-05-07T09:53:31.917Z,11.00
2023-05-07T09:55:05.745Z,11.80
2023-05-07T09:56:38.861Z,10.40
2023-05-07T09:58:15.910Z,10.20
2023-05-07T09:59:50.312Z,11.10
2023-05-07T10:01:26.542Z,11.60
2023-05-07T10:02:59.517Z,11.70
2023-05-07T10:04:39.249Z,11.90
2023-05-07T10:06:12.926Z,12.90
2023-05-07T10:07:46.222Z,9.50
2023-05-07T10:09:21.177Z,8.50
2023-05-07T10:10:53.173Z,9.90
2023-05-07T10:12:28.933Z,9.70
2023-05-07T10:14:06.820Z,11.20
2023-05-07T10:15:39.205Z,9.40
2023-05-07T10:17:14.697Z,9.80
2023-05-07T10:18:49.347Z,10.70
2023-05-07T10:20:25.037Z,11.30
2023-05-07T10:22:05.746Z,11.80
2023-05-07T10:23:41.656Z,11.00
2023-05-07T10:25:23.933Z,13.20
2023-05-07T10:26:58.560Z,10.50
2023-05-07T10:28:35.413Z,11.10
2023-05-07T10:30:44.477Z,10.60
2023-05-07T10:32:28.250Z,9.80
2023-05-07T10:34:03.231Z,12.10
2023-05-07T10:35:45.354Z,12.00
2023-05-07T10:37:18.897Z,13.20
2023-05-07T10:38:52.595Z,12.10
2023-05-07T10:40:24.868Z,13.50
2023-05-07T10:41:57.104Z,12.20
2023-05-07T10:43:44.598Z,13.50
2023-05-07T10:45:21.330Z,13.10
2023-05-07T10:47:10.628Z,11.10
2023-05-07T10:49:02.146Z,11.90
2023-05-07T10:50:42.409Z,10.70
2023-05-07T10:52:31.326Z,13.40
2023-05-07T10:54:16.506Z,13.00
2023-05-07T10:56:18.742Z,12.00
2023-05-07T10:58:32.420Z,14.50
2023-05-07T11:00:22.430Z,11.40
2023-05-07T11:02:10.980Z,9.30
2023-05-07T11:04:18.457Z,10.40
2023-05-07T11:06:11.014Z,11.30
2023-05-07T11:07:57.112Z,11.40
2023-05-07T11:09:52.978Z,11.90
2023-05-07T11:11:53.909Z,11.50
2023-05-07T11:13:53.074Z,10.40
2023-05-07T11:15:46.744Z,10.10
2023-05-07T11:17:24.297Z,11.60
2023-05-07T11:19:01.804Z,10.80
2023-05-07T11:21:00.032Z,11.70
2023-05-07T11:22:40.932Z,10.30
2023-05-07T11:24:43.494Z,10.20
2023-05-07T11:26:17.127Z,12.40
2023-05-07T11:27:49.824Z,8.70
2023-05-07T11:29:23.590Z,9.40
2023-05-07T11:31:00.762Z,9.60
2023-05-07T11:32:33.640Z,9.60
2023-05-07T11:34:07.499Z,8.50
2023-05-07T11:35:39.526Z,10.20
2023-05-07T11:37:13.569Z,11.10
2023-05-07T11:39:01.307Z,10.60
2023-05-07T11:40:33.071Z,11.40
2023-05-07T11:42:05.039Z,13.40
2023-05-07T11:43:37.494Z,11.20
2023-05-07T11:45:10.518Z,13.20
2023-05-07T11:46:47.646Z,11.10
2023-05-07T11:48:19.530Z,11.50
2023-05-07T11:49:54.542Z,9.90
2023-05-07T11:51:29.251Z,10.50
2023-05-07T11:53:00.994Z,9.80
2023-05-07T11:54:38.943Z,8.50
2023-05-07T11:56:15.609Z,7.80
2023-05-07T11:57:47.818Z,9.80
2023-05-07T11:59:20.217Z,8.90
2023-05-07T12:00:55.833Z,9.50
2023-05-07T12:02:29.183Z,10.10
2023-05-07T12:04:06.382Z,9.40
2023-05-07T12:05:40.644Z,10.30
2023-05-07T12:07:18.435Z,10.10
2023-05-07T12:08:50.202Z,9.40
2023-05-07T12:10:22.345Z,9.60
2023-05-07T12:11:54.327Z,11.00
2023-05-07T12:13:27.242Z,11.70
2023-05-07T12:14:59.110Z,9.20
2023-05-07T12:16:32.511Z,10.80
2023-05-07T12:18:04.754Z,9.10
2023-05-07T12:19:39.148Z,8.70
2023-05-07T12:21:11.907Z,10.60
2023-05-07T12:22:44.311Z,9.10
2023-05-07T12:24:16.517Z,8.40
2023-05-07T12:25:48.797Z,11.90
2023-05-07T12:27:20.632Z,7.80
2023-05-07T12:28:52.386Z,8.50
2023-05-07T12:30:24.165Z,12.10
2023-05-07T12:31:56.059Z,8.30
2023-05-07T12:33:29.627Z,10.90
2023-05-07T12:35:01.419Z,8.90
2023-05-07T12:36:41.293Z,9.80
2023-05-07T12:38:17.096Z,9.30
2023-05-07T12:39:50.834Z,8.40
2023-05-07T12:41:26.794Z,8.00
2023-05-07T12:43:00.963Z,8.50
2023-05-07T12:44:35.218Z,9.30
2023-05-07T12:46:08.902Z,10.90
2023-05-07T12:47:47.041Z,10.80
2023-05-07T12:49:19.226Z,10.50
2023-05-07T12:50:52.347Z,10.90
2023-05-07T12:52:24.788Z,9.50
2023-05-07T12:53:58.225Z,9.80
2023-05-07T12:55:34.804Z,10.10
2023-05-07T12:57:10.860Z,10.50
2023-05-07T12:58:42.783Z,10.00
2023-05-07T13:00:15.659Z,11.00
2023-05-07T13:01:48.166Z,9.40
2023-05-07T13:03:32.334Z,10.30
2023-05-07T13:05:04.949Z,9.30
2023-05-07T13:06:36.898Z,9.10
2023-05-07T13:08:10.663Z,9.70
2023-05-07T13:09:43.314Z,8.70
2023-05-07T13:11:15.047Z,10.20
2023-05-07T13:12:46.871Z,9.70
2023-05-07T13:14:18.835Z,9.40
2023-05-07T13:15:50.796Z,9.00
2023-05-07T13:17:22.798Z,9.30
2023-05-07T13:18:54.646Z,9.70
2023-05-07T13:20:29.239Z,11.00
2023-05-07T13:22:00.957Z,9.50
2023-05-07T13:23:33.139Z,10.40
2023-05-07T13:25:05.741Z,11.20
2023-05-07T13:26:37.547Z,9.20
2023-05-07T13:28:11.357Z,9.00
2023-05-07T13:29:43.739Z,8.10
2023-05-07T13:31:15.670Z,9.60
2023-05-07T13:32:48.937Z,9.50
2023-05-07T13:34:20.867Z,8.20
2023-05-07T13:35:52.668Z,8.70
2023-05-07T13:37:24.491Z,7.80
2023-05-07T13:38:56.349Z,7.10
2023-05-07T13:40:28.405Z,5.90
2023-05-07T13:42:00.710Z,7.30
2023-05-07T13:43:34.444Z,8.30
2023-05-07T13:45:07.012Z,7.70
2023-05-07T13:46:38.825Z,9.20
2023-05-07T13:48:10.763Z,8.60
2023-05-07T13:49:42.510Z,7.70
2023-05-07T13:51:14.470Z,8.80
2023-05-07T13:52:52.385Z,7.70
2023-05-07T13:54:25.089Z,9.00
2023-05-07T13:55:56.958Z,7.80
2023-05-07T13:57:28.848Z,8.60
2023-05-07T13:59:01.233Z,7.60
2023-05-07T14:00:33.115Z,8.10
2023-05-07T14:02:04.895Z,8.50
2023-05-07T14:03:38.850Z,9.70
2023-05-07T14:05:11.299Z,8.60
2023-05-07T14:06:43.044Z,8.60
2023-05-07T14:08:15.539Z,7.70
2023-05-07T14:09:47.427Z,6.70
2023-05-07T14:11:19.287Z,7.70
2023-05-07T14:12:51.396Z,5.90
2023-05-07T14:14:23.235Z,7.00
2023-05-07T14:15:55.083Z,8.90
2023-05-07T14:17:28.103Z,6.00
2023-05-07T14:18:59.979Z,6.30
2023-05-07T14:20:32.140Z,6.50
2023-05-07T14:22:03.926Z,6.10
2023-05-07T14:23:35.697Z,7.20
2023-05-07T14:25:08.656Z,7.80
2023-05-07T14:26:40.636Z,9.60
2023-05-07T14:28:12.512Z,8.90
2023-05-07T14:29:46.638Z,8.70
2023-05-07T14:31:18.506Z,8.30
2023-05-07T14:32:50.414Z,8.00
2023-05-07T14:34:22.217Z,7.60
2023-05-07T14:35:53.984Z,7.80
2023-05-07T14:37:28.255Z,9.00
2023-05-07T14:39:00.522Z,8.20
2023-05-07T14:40:32.619Z,7.10
2023-05-07T14:42:04.496Z,8.90
2023-05-07T14:43:37.055Z,7.50
2023-05-07T14:45:11.329Z,9.40
2023-05-07T14:46:43.643Z,9.00
2023-05-07T14:48:16.344Z,9.20
2023-05-07T14:49:48.388Z,9.80
2023-05-07T14:51:22.246Z,8.70
2023-05-07T14:52:54.200Z,8.80
2023-05-07T14:54:26.352Z,8.80
2023-05-07T14:55:58.299Z,8.70
2023-05-07T14:57:32.955Z,8.30
2023-05-07T14:59:07.458Z,8.80
2023-05-07T15:00:39.418Z,10.00
2023-05-07T15:02:13.732Z,9.70
2023-05-07T15:03:45.986Z,9.00
2023-05-07T15:05:20.469Z,8.20
2023-05-07T15:06:54.795Z,9.20
2023-05-07T15:08:26.774Z,10.00
2023-05-07T15:09:59.910Z,10.40
2023-05-07T15:11:32.338Z,10.40
2023-05-07T15:13:04.140Z,10.70
2023-05-07T15:14:36.152Z,9.20
2023-05-07T15:16:07.953Z,9.20
2023-05-07T15:17:40.751Z,9.70
2023-05-07T15:19:12.722Z,10.20
2023-05-07T15:20:44.868Z,9.90
2023-05-07T15:22:17.162Z,9.00
2023-05-07T15:23:49.269Z,9.70
2023-05-07T15:25:21.617Z,9.50
2023-05-07T15:26:53.633Z,7.90
2023-05-07T15:28:26.172Z,8.50
2023-05-07T15:29:59.290Z,8.20
2023-05-07T15:31:31.415Z,8.90
2023-05-07T15:33:04.703Z,8.80
2023-05-07T15:34:36.957Z,9.70
2023-05-07T15:36:08.905Z,10.50
2023-05-07T15:37:40.981Z,9.50
2023-05-07T15:39:14.076Z,7.60
2023-05-07T15:40:46.278Z,8.00
2023-05-07T15:42:18.088Z,7.10
2023-05-07T15:43:53.596Z,8.10
2023-05-07T15:45:25.628Z,8.40
2023-05-07T15:46:57.581Z,9.30
2023-05-07T15:48:29.598Z,8.80
2023-05-07T15:50:02.236Z,9.10
2023-05-07T15:51:37.115Z,7.30
2023-05-07T15:53:10.028Z,8.90
2023-05-07T15:54:42.371Z,7.60
2023-05-07T15:56:14.334Z,7.40
2023-05-07T15:57:46.191Z,9.40
2023-05-07T15:59:17.964Z,8.20
2023-05-07T16:00:50.357Z,8.30
2023-05-07T16:02:22.489Z,8.30
2023-05-07T16:03:54.812Z,7.20
2023-05-07T16:05:26.635Z,8.00
2023-05-07T16:06:58.451Z,8.60
2023-05-07T16:08:30.335Z,8.50
2023-05-07T16:10:03.745Z,8.80
2023-05-07T16:11:36.296Z,7.90
2023-05-07T16:13:08.261Z,8.40
2023-05-07T16:14:40.182Z,8.50
2023-05-07T16:16:13.169Z,10.00
2023-05-07T16:17:49.136Z,8.20
2023-05-07T16:19:21.176Z,8.60
2023-05-07T16:20:53.190Z,8.90
2023-05-07T16:22:26.124Z,7.50
2023-05-07T16:23:57.855Z,8.30
2023-05-07T16:25:30.399Z,7.10
2023-05-07T16:27:02.343Z,7.10
2023-05-07T16:28:34.341Z,6.10
2023-05-07T16:30:08.773Z,6.90
2023-05-07T16:31:40.913Z,7.70
2023-05-07T16:33:12.761Z,7.20
2023-05-07T16:34:44.472Z,8.00
2023-05-07T16:36:16.415Z,6.90
2023-05-07T16:37:48.292Z,6.50
2023-05-07T16:39:19.998Z,8.10
2023-05-07T16:40:51.862Z,7.70
2023-05-07T16:42:23.845Z,7.50
2023-05-07T16:43:57.662Z,5.70
2023-05-07T16:45:29.506Z,6.10
2023-05-07T16:47:01.704Z,6.00
2023-05-07T16:48:34.034Z,5.80
2023-05-07T16:50:06.813Z,5.90
2023-05-07T16:51:38.516Z,5.20
2023-05-07T16:53:11.512Z,8.20
2023-05-07T16:54:43.367Z,5.40
2023-05-07T16:56:15.097Z,5.80
2023-05-07T16:57:47.017Z,7.00
2023-05-07T16:59:18.792Z,4.70
2023-05-07T17:00:51.384Z,5.80
2023-05-07T17:02:23.714Z,5.30
2023-05-07T17:03:55.842Z,5.20
2023-05-07T17:05:27.892Z,5.20
2023-05-07T17:06:59.660Z,5.90
2023-05-07T17:08:31.454Z,5.40
2023-05-07T17:10:03.916Z,6.20
2023-05-07T17:11:35.647Z,7.60
2023-05-07T17:13:07.534Z,5.30
2023-05-07T17:14:39.777Z,4.60
2023-05-07T17:16:11.846Z,4.30
2023-05-07T17:17:44.062Z,6.00
2023-05-07T17:19:16.067Z,3.60
2023-05-07T17:20:48.302Z,3.60
2023-05-07T17:22:20.154Z,5.50
2023-05-07T17:23:52.012Z,5.60
2023-05-07T17:25:24.038Z,4.00
2023-05-07T17:26:55.888Z,4.50
2023-05-07T17:28:27.834Z,3.00
2023-05-07T17:29:59.621Z,4.10
2023-05-07T17:31:31.588Z,4.50
2023-05-07T17:33:16.764Z,4.70
2023-05-07T17:34:52.785Z,3.40
2023-05-07T17:36:24.722Z,5.30
2023-05-07T17:37:56.562Z,4.50
2023-05-07T17:39:28.357Z,4.90
2023-05-07T17:41:00.346Z,3.50
2023-05-07T17:42:32.596Z,4.10
2023-05-07T17:44:04.996Z,4.30
2023-05-07T17:45:37.312Z,3.90
2023-05-07T17:47:09.584Z,4.70
2023-05-07T17:48:42.034Z,4.30
2023-05-07T17:50:14.817Z,4.30
2023-05-07T17:51:54.023Z,5.70
2023-05-07T17:53:28.445Z,7.20
2023-05-07T17:55:00.597Z,4.40
2023-05-07T17:56:32.912Z,5.30
2023-05-07T17:58:05.545Z,4.90
2023-05-07T17:59:38.253Z,6.10
2023-05-07T18:01:10.554Z,4.50
2023-05-07T18:02:42.854Z,4.80
2023-05-07T18:04:15.463Z,4.80
2023-05-07T18:05:47.662Z,5.00
2023-05-07T18:07:20.771Z,5.30
2023-05-07T18:08:54.582Z,5.00
2023-05-07T18:10:26.578Z,4.50
2023-05-07T18:11:58.858Z,5.60
2023-05-07T18:13:30.896Z,5.50
2023-05-07T18:15:03.248Z,6.20
2023-05-07T18:16:35.558Z,5.10
2023-05-07T18:18:07.746Z,6.00
2023-05-07T18:19:40.043Z,5.00
2023-05-07T18:21:18.569Z,4.90
2023-05-07T18:22:50.840Z,5.40
2023-05-07T18:24:23.057Z,4.40
2023-05-07T18:25:55.352Z,6.00
2023-05-07T18:27:27.790Z,5.70
2023-05-07T18:29:00.092Z,5.60
2023-05-07T18:30:32.623Z,7.00
2023-05-07T18:32:05.578Z,6.50
2023-05-07T18:33:37.987Z,5.60
2023-05-07T18:35:11.000Z,6.10
2023-05-07T18:36:44.031Z,5.00
2023-05-07T18:38:15.875Z,5.60
2023-05-07T18:39:47.688Z,6.50
2023-05-07T18:41:21.853Z,7.00
2023-05-07T18:42:54.319Z,5.20
2023-05-07T18:44:26.759Z,6.10
2023-05-07T18:45:59.089Z,6.00
2023-05-07T18:47:31.316Z,6.20
2023-05-07T18:49:03.566Z,5.60
2023-05-07T18:50:35.347Z,5.80
2023-05-07T18:52:07.080Z,7.50
2023-05-07T18:53:40.320Z,5.90
2023-05-07T18:55:12.074Z,5.80
2023-05-07T18:56:45.669Z,5.70
2023-05-07T18:58:19.905Z,5.30
2023-05-07T18:59:56.653Z,6.40
2023-05-07T19:01:28.538Z,7.00
2023-05-07T19:03:00.493Z,7.20
2023-05-07T19:04:32.590Z,6.10
2023-05-07T19:06:06.020Z,6.20
2023-05-07T19:07:37.880Z,5.60
2023-05-07T19:09:10.990Z,4.40
2023-05-07T19:10:43.440Z,6.00
2023-05-07T19:12:15.640Z,5.00
2023-05-07T19:13:47.960Z,6.30
2023-05-07T19:15:20.254Z,5.80
2023-05-07T19:16:52.520Z,6.00
2023-05-07T19:18:25.089Z,6.60
2023-05-07T19:19:57.466Z,6.90
2023-05-07T19:21:30.052Z,7.40
2023-05-07T19:23:02.228Z,6.00
2023-05-07T19:24:34.662Z,6.00
2023-05-07T19:26:06.865Z,6.30
2023-05-07T19:27:39.504Z,5.60
2023-05-07T19:29:18.051Z,6.00
2023-05-07T19:30:52.286Z,6.50
2023-05-07T19:32:26.341Z,5.90
2023-05-07T19:33:58.536Z,5.60
2023-05-07T19:35:31.731Z,8.30
2023-05-07T19:37:05.826Z,5.00
2023-05-07T19:38:37.850Z,6.80
2023-05-07T19:40:11.143Z,5.00
2023-05-07T19:41:43.597Z,5.90
2023-05-07T19:43:15.727Z,6.30
2023-05-07T19:44:47.856Z,6.40
2023-05-07T19:46:20.460Z,6.60
2023-05-07T19:47:54.118Z,6.20
2023-05-07T19:49:26.281Z,7.60
2023-05-07T19:51:01.019Z,6.80
2023-05-07T19:52:33.007Z,8.30
2023-05-07T19:54:05.333Z,8.00
2023-05-07T19:55:37.158Z,7.50
2023-05-07T19:57:09.463Z,8.90
2023-05-07T19:58:41.782Z,8.90
2023-05-07T20:00:14.778Z,9.70
2023-05-07T20:01:47.074Z,11.50
2023-05-07T20:03:19.182Z,8.90
2023-05-07T20:04:51.390Z,11.60
2023-05-07T20:06:23.877Z,11.80
2023-05-07T20:07:56.422Z,11.20
2023-05-07T20:09:28.385Z,10.50
2023-05-07T20:11:01.534Z,9.50
2023-05-07T20:12:33.314Z,10.00
2023-05-07T20:14:06.083Z,10.00
2023-05-07T20:15:39.472Z,14.00
2023-05-07T20:17:11.489Z,10.70
2023-05-07T20:18:43.448Z,12.00
2023-05-07T20:20:15.696Z,10.40
2023-05-07T20:21:47.963Z,10.60
2023-05-07T20:23:20.147Z,12.40
2023-05-07T20:24:52.453Z,11.80
2023-05-07T20:26:24.716Z,15.30
2023-05-07T20:27:57.386Z,11.90
2023-05-07T20:29:30.363Z,12.30
2023-05-07T20:31:02.589Z,11.50
2023-05-07T20:32:35.251Z,12.80
2023-05-07T20:34:08.194Z,12.10
2023-05-07T20:35:41.476Z,15.20
2023-05-07T20:37:15.853Z,12.50